createdAt,value
2022-08-22T00:01:26.220Z,94188.53
2022-08-22T00:02:45.527Z,94201.38
2022-08-22T00:03:07.844Z,94207.16
2022-08-22T00:04:13.507Z,94187.41
2022-08-22T00:07:01.977Z,94183.19
2022-08-22T00:09:38.184Z,94188.97
2022-08-22T00:12:29.730Z,94185.13
2022-08-22T00:15:41.982Z,94178.16
2022-08-22T00:18:12.675Z,94175.81
2022-08-22T00:20:49.186Z,94173.06
2022-08-22T00:23:23.101Z,94172.59
2022-08-22T00:26:03.953Z,94174.88
2022-08-22T00:28:44.578Z,94167.13
2022-08-22T00:31:36.721Z,94170.25
2022-08-22T00:34:26.436Z,94159.78
2022-08-22T00:37:22.440Z,94166.72
2022-08-22T00:39:59.160Z,94155.47
2022-08-22T00:43:00.037Z,94158.91
2022-08-22T00:45:45.033Z,94160.78
2022-08-22T00:48:23.688Z,94158.81
2022-08-22T00:51:33.124Z,94157.53
2022-08-22T00:54:15.882Z,94158.63
2022-08-22T00:57:15.512Z,94162.00
2022-08-22T01:00:12.453Z,94157.28
2022-08-22T01:02:52.692Z,94156.72
2022-08-22T01:05:28.264Z,94151.59
2022-08-22T01:08:01.243Z,94163.97
2022-08-22T01:10:54.247Z,94158.53
2022-08-22T01:13:29.637Z,94164.66
2022-08-22T01:16:09.796Z,94168.44
2022-08-22T01:18:50.552Z,94167.56
2022-08-22T01:21:26.296Z,94172.19
2022-08-22T01:24:20.458Z,94172.97
2022-08-22T01:27:18.516Z,94165.94
2022-08-22T01:30:09.109Z,94167.50
2022-08-22T01:33:03.971Z,94159.00
2022-08-22T01:35:44.908Z,94156.19
2022-08-22T01:38:50.044Z,94161.16
2022-08-22T01:41:38.579Z,94163.50
2022-08-22T01:44:37.712Z,94161.88
2022-08-22T01:47:15.489Z,94163.78
2022-08-22T01:50:00.468Z,94163.44
2022-08-22T01:52:30.166Z,94167.25
2022-08-22T01:55:03.228Z,94170.28
2022-08-22T01:57:30.004Z,94164.88
2022-08-22T02:00:06.303Z,94171.44
2022-08-22T02:02:41.742Z,94171.34
2022-08-22T02:05:11.833Z,94172.38
2022-08-22T02:07:44.445Z,94165.69
2022-08-22T02:10:48.416Z,94165.28
2022-08-22T02:13:15.036Z,94164.13
2022-08-22T02:15:41.672Z,94171.81
2022-08-22T02:18:25.761Z,94164.00
2022-08-22T02:21:20.291Z,94165.47
2022-08-22T02:23:56.073Z,94160.88
2022-08-22T02:27:05.159Z,94165.91
2022-08-22T02:29:48.825Z,94159.38
2022-08-22T02:32:34.361Z,94161.66
2022-08-22T02:35:14.281Z,94159.38
2022-08-22T02:38:05.641Z,94151.56
2022-08-22T02:40:40.032Z,94156.19
2022-08-22T02:43:19.344Z,94155.00
2022-08-22T02:46:07.502Z,94152.28
2022-08-22T02:48:50.811Z,94154.63
2022-08-22T02:51:17.432Z,94150.38
2022-08-22T02:53:50.149Z,94151.16
2022-08-22T02:56:25.070Z,94153.06
2022-08-22T02:58:57.033Z,94147.31
2022-08-22T03:01:32.068Z,94147.69
2022-08-22T03:04:32.815Z,94150.31
2022-08-22T03:07:20.585Z,94145.25
2022-08-22T03:10:05.585Z,94147.53
2022-08-22T03:12:38.329Z,94147.03
2022-08-22T03:15:20.910Z,94140.44
2022-08-22T03:18:12.466Z,94150.44
2022-08-22T03:20:51.236Z,94141.13
2022-08-22T03:23:26.183Z,94142.25
2022-08-22T03:26:00.350Z,94152.22
2022-08-22T03:28:37.295Z,94149.38
2022-08-22T03:31:12.608Z,94152.78
2022-08-22T03:33:39.694Z,94151.47
2022-08-22T03:36:22.610Z,94150.34
2022-08-22T03:39:08.784Z,94153.81
2022-08-22T03:42:02.859Z,94155.69
2022-08-22T03:44:44.737Z,94160.22
2022-08-22T03:47:25.618Z,94155.19
2022-08-22T03:50:19.612Z,94153.63
2022-08-22T03:53:20.431Z,94160.56
2022-08-22T03:56:24.957Z,94156.16
2022-08-22T03:59:14.513Z,94161.91
2022-08-22T04:02:42.274Z,94157.94
2022-08-22T04:05:32.503Z,94161.25
2022-08-22T04:08:05.024Z,94166.47
2022-08-22T04:10:51.778Z,94174.03
2022-08-22T04:13:24.975Z,94168.59
2022-08-22T04:16:05.147Z,94177.81
2022-08-22T04:18:40.831Z,94168.94
2022-08-22T04:21:28.729Z,94168.50
2022-08-22T04:24:14.442Z,94176.13
2022-08-22T04:26:44.071Z,94170.72
2022-08-22T04:29:19.665Z,94170.84
2022-08-22T04:32:15.108Z,94174.75
2022-08-22T04:34:53.205Z,94177.38
2022-08-22T04:37:34.509Z,94182.41
2022-08-22T04:40:09.648Z,94181.84
2022-08-22T04:42:42.344Z,94183.34
2022-08-22T04:45:12.651Z,94179.06
2022-08-22T04:47:46.032Z,94190.38
2022-08-22T04:50:33.866Z,94194.41
2022-08-22T04:53:25.163Z,94193.75
2022-08-22T04:55:56.674Z,94195.84
2022-08-22T04:58:56.237Z,94189.06
2022-08-22T05:01:43.263Z,94188.72
2022-08-22T05:04:15.356Z,94197.81
2022-08-22T05:06:44.347Z,94200.66
2022-08-22T05:09:16.496Z,94198.91
2022-08-22T05:11:47.034Z,94211.25
2022-08-22T05:14:23.728Z,94209.75
2022-08-22T05:16:54.352Z,94206.78
2022-08-22T05:19:31.882Z,94217.78
2022-08-22T05:22:00.924Z,94219.16
2022-08-22T05:24:42.436Z,94217.53
2022-08-22T05:27:15.326Z,94216.69
2022-08-22T05:29:46.160Z,94220.81
2022-08-22T05:32:23.673Z,94217.19
2022-08-22T05:34:53.456Z,94229.41
2022-08-22T05:37:26.097Z,94221.13
2022-08-22T05:39:58.848Z,94222.91
2022-08-22T05:42:33.828Z,94228.66
2022-08-22T05:45:03.219Z,94229.00
2022-08-22T05:47:44.226Z,94227.06
2022-08-22T05:50:17.675Z,94229.78
2022-08-22T05:53:03.251Z,94228.59
2022-08-22T05:55:37.390Z,94229.22
2022-08-22T05:58:32.159Z,94229.41
2022-08-22T06:01:25.030Z,94237.97
2022-08-22T06:04:13.798Z,94235.31
2022-08-22T06:06:52.664Z,94240.22
2022-08-22T06:09:35.535Z,94230.09
2022-08-22T06:12:21.786Z,94239.44
2022-08-22T06:14:51.775Z,94235.78
2022-08-22T06:17:50.288Z,94232.91
2022-08-22T06:20:25.859Z,94226.97
2022-08-22T06:22:58.792Z,94225.41
2022-08-22T06:25:30.041Z,94228.03
2022-08-22T06:28:01.661Z,94231.88
2022-08-22T06:30:29.956Z,94231.09
2022-08-22T06:33:02.954Z,94226.19
2022-08-22T06:36:02.885Z,94230.66
2022-08-22T06:38:54.465Z,94237.50
2022-08-22T06:41:25.649Z,94236.25
2022-08-22T06:43:53.495Z,94238.78
2022-08-22T06:46:23.370Z,94237.81
2022-08-22T06:48:51.374Z,94243.75
2022-08-22T06:51:20.389Z,94243.31
2022-08-22T06:53:55.961Z,94236.88
2022-08-22T06:56:29.629Z,94246.78
2022-08-22T06:59:00.210Z,94239.63
2022-08-22T07:01:37.909Z,94237.41
2022-08-22T07:04:11.388Z,94243.78
2022-08-22T07:06:45.268Z,94248.56
2022-08-22T07:09:26.292Z,94241.59
2022-08-22T07:11:56.273Z,94250.94
2022-08-22T07:14:45.070Z,94250.94
2022-08-22T07:17:32.897Z,94247.16
2022-08-22T07:20:15.466Z,94249.53
2022-08-22T07:22:54.078Z,94247.66
2022-08-22T07:25:24.344Z,94252.72
2022-08-22T07:28:03.697Z,94256.59
2022-08-22T07:30:55.903Z,94252.69
2022-08-22T07:33:47.852Z,94261.63
2022-08-22T07:36:47.827Z,94255.81
2022-08-22T07:39:30.092Z,94258.94
2022-08-22T07:42:13.006Z,94263.22
2022-08-22T07:45:01.532Z,94258.94
2022-08-22T07:47:55.594Z,94263.22
2022-08-22T07:50:30.283Z,94253.47
2022-08-22T07:53:14.387Z,94251.47
2022-08-22T07:55:49.325Z,94252.63
2022-08-22T07:58:18.163Z,94260.03
2022-08-22T08:00:47.143Z,94269.38
2022-08-22T08:03:14.439Z,94265.53
2022-08-22T08:05:44.781Z,94273.31
2022-08-22T08:08:22.181Z,94272.88
2022-08-22T08:10:50.859Z,94268.22
2022-08-22T08:13:26.574Z,94275.97
2022-08-22T08:15:54.107Z,94272.78
2022-08-22T08:18:25.839Z,94275.56
2022-08-22T08:20:54.181Z,94281.44
2022-08-22T08:23:23.640Z,94272.47
2022-08-22T08:25:53.914Z,94277.53
2022-08-22T08:28:34.298Z,94275.13
2022-08-22T08:31:27.647Z,94281.19
2022-08-22T08:34:03.292Z,94276.09
2022-08-22T08:36:44.281Z,94275.41
2022-08-22T08:39:14.379Z,94282.34
2022-08-22T08:42:03.432Z,94279.06
2022-08-22T08:45:01.414Z,94265.47
2022-08-22T08:48:01.677Z,94272.94
2022-08-22T08:50:37.606Z,94276.09
2022-08-22T08:53:27.992Z,94278.25
2022-08-22T08:56:03.535Z,94283.94
2022-08-22T08:58:37.896Z,94279.38
2022-08-22T09:01:17.029Z,94280.38
2022-08-22T09:03:59.897Z,94276.59
2022-08-22T09:06:42.445Z,94275.47
2022-08-22T09:09:18.660Z,94273.47
2022-08-22T09:12:04.115Z,94280.91
2022-08-22T09:14:58.846Z,94279.91
2022-08-22T09:17:53.360Z,94274.06
2022-08-22T09:20:46.277Z,94277.25
2022-08-22T09:23:44.568Z,94281.00
2022-08-22T09:26:22.956Z,94276.28
2022-08-22T09:28:59.574Z,94276.59
2022-08-22T09:31:48.296Z,94273.63
2022-08-22T09:34:30.738Z,94270.47
2022-08-22T09:37:24.993Z,94270.53
2022-08-22T09:40:17.502Z,94269.28
2022-08-22T09:43:01.904Z,94267.31
2022-08-22T09:45:38.189Z,94268.97
2022-08-22T09:48:10.360Z,94267.47
2022-08-22T09:51:32.192Z,94273.31
2022-08-22T09:53:59.914Z,94266.75
2022-08-22T09:56:40.885Z,94266.50
2022-08-22T09:59:38.883Z,94271.03
2022-08-22T10:02:27.656Z,94273.84
2022-08-22T10:05:07.606Z,94264.28
2022-08-22T10:07:58.867Z,94275.09
2022-08-22T10:10:40.542Z,94270.00
2022-08-22T10:13:30.599Z,94271.41
2022-08-22T10:16:13.147Z,94264.97
2022-08-22T10:19:01.153Z,94270.81
2022-08-22T10:22:08.860Z,94275.94
2022-08-22T10:25:13.211Z,94269.34
2022-08-22T10:27:55.195Z,94266.53
2022-08-22T10:30:26.263Z,94265.81
2022-08-22T10:33:13.250Z,94266.47
2022-08-22T10:35:54.759Z,94265.19
2022-08-22T10:38:32.458Z,94268.00
2022-08-22T10:41:12.685Z,94264.06
2022-08-22T10:43:56.442Z,94272.59
2022-08-22T10:46:42.159Z,94263.72
2022-08-22T10:49:54.091Z,94266.69
2022-08-22T10:52:32.331Z,94266.41
2022-08-22T10:55:22.772Z,94259.19
2022-08-22T10:58:09.062Z,94248.53
2022-08-22T11:00:49.940Z,94247.75
2022-08-22T11:03:34.580Z,94250.53
2022-08-22T11:06:27.113Z,94257.47
2022-08-22T11:09:12.934Z,94252.56
2022-08-22T11:11:56.182Z,94258.25
2022-08-22T11:14:34.977Z,94245.91
2022-08-22T11:17:46.421Z,94243.16
2022-08-22T11:20:40.667Z,94244.16
2022-08-22T11:23:34.915Z,94240.63
2022-08-22T11:26:07.419Z,94242.34
2022-08-22T11:28:56.505Z,94229.00
2022-08-22T11:31:36.526Z,94222.44
2022-08-22T11:34:27.940Z,94228.00
2022-08-22T11:37:42.802Z,94237.19
2022-08-22T11:40:27.981Z,94216.41
2022-08-22T11:43:12.076Z,94218.38
2022-08-22T11:45:49.304Z,94213.88
2022-08-22T11:48:24.452Z,94216.81
2022-08-22T11:50:57.913Z,94224.28
2022-08-22T11:53:42.691Z,94214.25
2022-08-22T11:56:27.865Z,94204.06
2022-08-22T11:59:51.523Z,94209.03
2022-08-22T12:02:36.346Z,94211.81
2022-08-22T12:05:20.206Z,94194.47
2022-08-22T12:08:14.614Z,94201.66
2022-08-22T12:11:10.271Z,94195.91
2022-08-22T12:13:49.729Z,94192.53
2022-08-22T12:16:24.005Z,94203.06
2022-08-22T12:19:16.801Z,94197.69
2022-08-22T12:22:31.178Z,94195.78
2022-08-22T12:25:16.538Z,94195.84
2022-08-22T12:27:59.494Z,94188.59
2022-08-22T12:30:41.578Z,94198.19
2022-08-22T12:33:33.107Z,94192.31
2022-08-22T12:36:24.931Z,94187.06
2022-08-22T12:38:51.507Z,94180.09
2022-08-22T12:41:46.830Z,94178.75
2022-08-22T12:44:39.979Z,94179.50
2022-08-22T12:47:06.525Z,94172.59
2022-08-22T12:50:12.402Z,94164.22
2022-08-22T12:53:02.754Z,94163.88
2022-08-22T12:55:32.341Z,94169.88
2022-08-22T12:58:11.643Z,94159.78
2022-08-22T13:00:43.972Z,94166.28
2022-08-22T13:03:34.586Z,94168.84
2022-08-22T13:06:26.357Z,94159.69
2022-08-22T13:08:54.543Z,94162.59
2022-08-22T13:11:23.662Z,94151.97
2022-08-22T13:14:00.530Z,94166.00
2022-08-22T13:16:38.952Z,94158.09
2022-08-22T13:19:13.425Z,94163.00
2022-08-22T13:21:48.298Z,94152.97
2022-08-22T13:24:22.682Z,94149.44
2022-08-22T13:27:11.012Z,94149.28
2022-08-22T13:30:03.776Z,94152.25
2022-08-22T13:33:05.646Z,94152.72
2022-08-22T13:35:51.875Z,94159.84
2022-08-22T13:38:27.844Z,94165.16
2022-08-22T13:40:58.053Z,94165.09
2022-08-22T13:43:32.061Z,94164.69
2022-08-22T13:46:02.427Z,94177.34
2022-08-22T13:48:49.821Z,94172.09
2022-08-22T13:51:52.742Z,94175.88
2022-08-22T13:54:34.344Z,94178.09
2022-08-22T13:57:10.997Z,94170.91
2022-08-22T14:00:29.301Z,94156.63
2022-08-22T14:02:59.152Z,94157.84
2022-08-22T14:05:47.835Z,94153.06
2022-08-22T14:08:31.920Z,94156.31
2022-08-22T14:11:03.462Z,94143.72
2022-08-22T14:13:59.876Z,94142.53
2022-08-22T14:16:53.461Z,94145.97
2022-08-22T14:19:35.049Z,94146.09
2022-08-22T14:22:32.338Z,94148.28
2022-08-22T14:25:18.465Z,94144.50
2022-08-22T14:27:56.180Z,94139.78
2022-08-22T14:30:29.764Z,94138.56
2022-08-22T14:33:16.702Z,94137.16
2022-08-22T14:35:52.854Z,94147.16
2022-08-22T14:38:26.160Z,94147.53
2022-08-22T14:41:00.251Z,94137.13
2022-08-22T14:43:29.992Z,94149.06
2022-08-22T14:46:10.262Z,94132.88
2022-08-22T14:49:24.981Z,94140.44
2022-08-22T14:52:25.463Z,94143.47
2022-08-22T14:55:08.831Z,94142.44
2022-08-22T14:57:41.550Z,94142.25
2022-08-22T15:00:13.590Z,94145.34
2022-08-22T15:02:42.303Z,94139.25
2022-08-22T15:05:17.072Z,94140.09
2022-08-22T15:07:54.346Z,94135.13
2022-08-22T15:10:26.473Z,94140.28
2022-08-22T15:13:01.753Z,94137.69
2022-08-22T15:15:49.445Z,94135.03
2022-08-22T15:18:20.316Z,94135.56
2022-08-22T15:20:52.041Z,94136.41
2022-08-22T15:23:21.988Z,94137.34
2022-08-22T15:26:04.045Z,94136.06
2022-08-22T15:28:52.993Z,94138.41
2022-08-22T15:31:22.300Z,94139.69
2022-08-22T15:33:50.472Z,94128.38
2022-08-22T15:36:22.113Z,94129.28
2022-08-22T15:39:16.391Z,94123.91
2022-08-22T15:41:48.361Z,94128.19
2022-08-22T15:44:32.360Z,94116.69
2022-08-22T15:47:10.709Z,94116.88
2022-08-22T15:49:50.911Z,94109.38
2022-08-22T15:52:27.315Z,94111.59
2022-08-22T15:54:53.986Z,94110.56
2022-08-22T15:57:38.902Z,94105.06
2022-08-22T16:00:29.244Z,94111.25
2022-08-22T16:03:02.585Z,94102.75
2022-08-22T16:05:49.854Z,94104.22
2022-08-22T16:08:33.242Z,94097.91
2022-08-22T16:11:02.992Z,94101.44
2022-08-22T16:13:29.910Z,94101.84
2022-08-22T16:16:11.160Z,94100.06
2022-08-22T16:18:39.188Z,94099.78
2022-08-22T16:21:07.806Z,94096.84
2022-08-22T16:23:49.843Z,94103.88
2022-08-22T16:26:31.848Z,94110.13
2022-08-22T16:29:14.717Z,94107.50
2022-08-22T16:31:44.556Z,94101.31
2022-08-22T16:34:17.325Z,94100.53
2022-08-22T16:37:19.351Z,94107.50
2022-08-22T16:39:58.697Z,94102.84
2022-08-22T16:42:27.521Z,94098.72
2022-08-22T16:45:06.217Z,94102.66
2022-08-22T16:47:32.853Z,94104.28
2022-08-22T16:50:19.642Z,94097.31
2022-08-22T16:53:10.102Z,94093.06
2022-08-22T16:55:43.858Z,94096.22
2022-08-22T16:58:57.916Z,94102.84
2022-08-22T17:01:45.867Z,94099.13
2022-08-22T17:04:26.880Z,94104.28
2022-08-22T17:07:12.399Z,94105.59
2022-08-22T17:10:23.498Z,94101.78
2022-08-22T17:13:03.826Z,94107.31
2022-08-22T17:16:12.591Z,94106.97
2022-08-22T17:19:09.878Z,94107.84
2022-08-22T17:21:51.677Z,94103.97
2022-08-22T17:24:31.904Z,94106.06
2022-08-22T17:27:35.074Z,94114.72
2022-08-22T17:30:19.842Z,94111.66
2022-08-22T17:33:20.748Z,94112.94
2022-08-22T17:36:26.332Z,94113.84
2022-08-22T17:39:12.531Z,94112.81
2022-08-22T17:42:03.322Z,94116.84
2022-08-22T17:44:41.747Z,94123.22
2022-08-22T17:47:16.195Z,94118.28
2022-08-22T17:49:45.158Z,94119.94
2022-08-22T17:52:37.504Z,94125.13
2022-08-22T17:55:24.891Z,94131.03
2022-08-22T17:58:12.180Z,94129.91
2022-08-22T18:01:08.308Z,94131.50
2022-08-22T18:03:40.388Z,94132.78
2022-08-22T18:06:27.267Z,94139.50
2022-08-22T18:09:17.531Z,94132.59
2022-08-22T18:12:01.019Z,94144.38
2022-08-22T18:14:39.864Z,94136.63
2022-08-22T18:17:25.858Z,94145.22
2022-08-22T18:20:06.886Z,94146.47
2022-08-22T18:22:41.958Z,94154.72
2022-08-22T18:25:17.815Z,94155.53
2022-08-22T18:28:14.458Z,94147.78
2022-08-22T18:30:50.340Z,94152.88
2022-08-22T18:33:40.817Z,94157.19
2022-08-22T18:36:20.054Z,94162.34
2022-08-22T18:39:19.043Z,94160.47
2022-08-22T18:41:52.876Z,94171.47
2022-08-22T18:44:24.053Z,94169.25
2022-08-22T18:46:54.300Z,94169.69
2022-08-22T18:49:21.004Z,94177.97
2022-08-22T18:52:07.204Z,94182.69
2022-08-22T18:55:15.146Z,94188.94
2022-08-22T18:58:00.364Z,94186.59
2022-08-22T19:00:42.420Z,94194.34
2022-08-22T19:03:26.628Z,94191.25
2022-08-22T19:06:02.147Z,94192.38
2022-08-22T19:08:53.730Z,94196.66
2022-08-22T19:11:38.918Z,94198.59
2022-08-22T19:14:29.858Z,94207.19
2022-08-22T19:16:59.518Z,94203.69
2022-08-22T19:20:03.087Z,94213.81
2022-08-22T19:22:34.510Z,94214.97
2022-08-22T19:25:08.969Z,94217.72
2022-08-22T19:27:45.590Z,94214.63
2022-08-22T19:30:33.571Z,94216.94
2022-08-22T19:33:10.189Z,94216.94
2022-08-22T19:36:03.251Z,94223.16
2022-08-22T19:39:09.229Z,94227.81
2022-08-22T19:41:48.162Z,94228.22
2022-08-22T19:44:20.640Z,94221.59
2022-08-22T19:47:12.667Z,94220.41
2022-08-22T19:49:42.828Z,94224.69
2022-08-22T19:52:15.619Z,94232.47
2022-08-22T19:55:07.137Z,94230.91
2022-08-22T19:57:52.281Z,94236.34
2022-08-22T20:00:23.159Z,94237.13
2022-08-22T20:03:02.201Z,94232.44
2022-08-22T20:05:57.581Z,94228.94
2022-08-22T20:08:48.743Z,94232.41
2022-08-22T20:11:39.443Z,94232.38
2022-08-22T20:14:12.280Z,94236.66
2022-08-22T20:17:00.396Z,94235.50
2022-08-22T20:22:45.844Z,94236.56
2022-08-22T20:25:42.134Z,94244.28
2022-08-22T20:28:23.311Z,94248.94
2022-08-22T20:30:57.933Z,94248.16
2022-08-22T20:33:34.604Z,94243.47
2022-08-22T20:36:07.006Z,94241.81
2022-08-22T20:38:57.086Z,94241.38
2022-08-22T20:41:30.576Z,94246.78
2022-08-22T20:44:18.633Z,94246.34
2022-08-22T20:46:57.590Z,94239.69
2022-08-22T20:49:35.943Z,94254.00
2022-08-22T20:52:07.448Z,94243.91
2022-08-22T20:54:38.381Z,94242.31
2022-08-22T20:57:14.159Z,94241.81
2022-08-22T20:59:49.276Z,94244.09
2022-08-22T21:02:23.108Z,94239.41
2022-08-22T21:05:00.301Z,94234.72
2022-08-22T21:07:30.337Z,94232.69
2022-08-22T21:10:34.499Z,94239.31
2022-08-22T21:13:19.745Z,94240.59
2022-08-22T21:15:54.208Z,94231.69
2022-08-22T21:18:35.494Z,94241.00
2022-08-22T21:21:17.331Z,94241.72
2022-08-22T21:24:06.843Z,94240.53
2022-08-22T21:26:51.964Z,94241.31
2022-08-22T21:29:23.393Z,94245.59
2022-08-22T21:31:54.613Z,94249.47
2022-08-22T21:34:42.688Z,94243.31
2022-08-22T21:37:15.764Z,94240.22
2022-08-22T21:40:09.084Z,94241.38
2022-08-22T21:42:45.030Z,94246.78
2022-08-22T21:45:26.533Z,94241.34
2022-08-22T21:47:53.576Z,94242.53
2022-08-22T21:50:23.726Z,94249.09
2022-08-22T21:52:56.535Z,94254.13
2022-08-22T21:55:27.035Z,94250.66
2022-08-22T21:58:12.539Z,94246.78
2022-08-22T22:00:48.833Z,94253.38
2022-08-22T22:03:18.543Z,94254.16
2022-08-22T22:05:45.707Z,94253.38
2022-08-22T22:08:13.048Z,94253.78
2022-08-22T22:10:42.696Z,94254.16
2022-08-22T22:13:10.150Z,94257.66
2022-08-22T22:15:44.790Z,94247.50
2022-08-22T22:18:14.482Z,94250.94
2022-08-22T22:20:45.067Z,94254.38
2022-08-22T22:23:12.867Z,94254.31
2022-08-22T22:25:42.424Z,94257.72
2022-08-22T22:28:13.861Z,94253.78
2022-08-22T22:30:41.824Z,94259.16
2022-08-22T22:33:08.877Z,94257.19
2022-08-22T22:35:39.275Z,94258.31
2022-08-22T22:38:08.021Z,94258.63
2022-08-22T22:40:35.491Z,94250.50
2022-08-22T22:43:03.397Z,94256.16
2022-08-22T22:45:30.434Z,94244.09
2022-08-22T22:47:57.535Z,94243.59
2022-08-22T22:50:25.271Z,94257.09
2022-08-22T22:52:54.305Z,94262.34
2022-08-22T22:55:24.322Z,94257.50
2022-08-22T22:57:58.663Z,94253.75
2022-08-22T23:00:29.264Z,94251.28
2022-08-22T23:03:00.558Z,94252.97
2022-08-22T23:05:28.939Z,94254.09
2022-08-22T23:07:55.926Z,94252.84
2022-08-22T23:10:22.825Z,94258.06
2022-08-22T23:12:49.706Z,94258.81
2022-08-22T23:15:16.819Z,94258.06
2022-08-22T23:17:43.871Z,94263.78
2022-08-22T23:20:10.862Z,94257.06
2022-08-22T23:22:37.552Z,94256.84
2022-08-22T23:25:05.412Z,94254.56
2022-08-22T23:27:32.265Z,94254.97
2022-08-22T23:29:59.191Z,94256.56
2022-08-22T23:32:25.878Z,94260.84
2022-08-22T23:34:53.812Z,94262.34
2022-08-22T23:37:22.314Z,94265.59
2022-08-22T23:39:49.483Z,94264.66
2022-08-22T23:42:18.205Z,94260.69
2022-08-22T23:44:45.958Z,94259.91
2022-08-22T23:47:14.404Z,94266.31
2022-08-22T23:49:42.790Z,94268.03
2022-08-22T23:52:12.394Z,94270.44
2022-08-22T23:54:39.263Z,94264.34
2022-08-22T23:57:06.904Z,94263.72
2022-08-22T23:59:44.633Z,94264.13
